createdAt,value
2019-02-12T00:00:47.307Z,1.80
2019-02-12T00:03:19.734Z,1.80
2019-02-12T00:05:50.608Z,1.80
2019-02-12T00:08:21.512Z,1.70
2019-02-12T00:10:52.418Z,1.70
2019-02-12T00:13:23.269Z,1.70
2019-02-12T00:15:54.166Z,1.70
2019-02-12T00:18:25.003Z,1.70
2019-02-12T00:20:55.877Z,1.70
2019-02-12T00:23:26.750Z,1.70
2019-02-12T00:25:57.645Z,1.70
2019-02-12T00:28:28.529Z,1.70
2019-02-12T00:30:59.393Z,1.70
2019-02-12T00:33:30.214Z,1.70
2019-02-12T00:36:00.949Z,1.70
2019-02-12T00:38:31.728Z,1.70
2019-02-12T00:41:02.480Z,1.70
2019-02-12T00:43:33.257Z,1.70
2019-02-12T00:46:04.103Z,1.70
2019-02-12T00:48:34.993Z,1.70
2019-02-12T00:51:05.933Z,1.70
2019-02-12T00:53:36.788Z,1.70
2019-02-12T00:56:07.615Z,1.70
2019-02-12T00:58:38.517Z,1.70
2019-02-12T01:01:09.461Z,1.70
2019-02-12T01:03:40.262Z,1.60
2019-02-12T01:06:11.013Z,1.60
2019-02-12T01:08:41.832Z,1.60
2019-02-12T01:11:12.586Z,1.60
2019-02-12T01:13:43.344Z,1.60
2019-02-12T01:16:14.149Z,1.60
2019-02-12T01:18:45.069Z,1.60
2019-02-12T01:21:15.916Z,1.60
2019-02-12T01:23:46.807Z,1.60
2019-02-12T01:26:17.596Z,1.60
2019-02-12T01:28:48.470Z,1.70
2019-02-12T01:31:19.208Z,1.70
2019-02-12T01:33:49.994Z,1.70
2019-02-12T01:36:20.752Z,1.70
2019-02-12T01:38:51.581Z,1.80
2019-02-12T01:41:22.290Z,1.80
2019-02-12T01:43:53.065Z,1.90
2019-02-12T01:46:23.857Z,1.90
2019-02-12T01:48:54.736Z,1.90
2019-02-12T01:51:25.547Z,1.90
2019-02-12T01:53:56.397Z,1.90
2019-02-12T01:56:27.134Z,2.00
2019-02-12T01:58:57.909Z,2.00
2019-02-12T02:01:29.634Z,2.00
2019-02-12T02:04:00.463Z,2.00
2019-02-12T02:06:31.183Z,2.10
2019-02-12T02:09:01.973Z,2.10
2019-02-12T02:11:34.308Z,2.10
2019-02-12T02:14:05.165Z,2.10
2019-02-12T02:16:35.977Z,2.10
2019-02-12T02:19:09.525Z,2.10
2019-02-12T02:21:44.028Z,2.10
2019-02-12T02:24:14.020Z,2.10
2019-02-12T02:26:44.859Z,2.10
2019-02-12T02:29:15.805Z,2.10
2019-02-12T02:31:46.623Z,2.10
2019-02-12T02:34:17.488Z,2.10
2019-02-12T02:36:48.231Z,2.10
2019-02-12T02:39:19.018Z,2.10
2019-02-12T02:41:49.861Z,2.00
2019-02-12T02:44:20.644Z,2.00
2019-02-12T02:46:51.384Z,2.00
2019-02-12T02:49:22.209Z,2.00
2019-02-12T02:51:54.158Z,1.90
2019-02-12T02:54:25.204Z,1.80
2019-02-12T02:56:56.051Z,1.80
2019-02-12T02:59:26.947Z,1.80
2019-02-12T03:01:57.749Z,1.80
2019-02-12T03:04:28.524Z,1.80
2019-02-12T03:06:59.269Z,1.70
2019-02-12T03:09:30.145Z,1.70
2019-02-12T03:12:00.901Z,1.70
2019-02-12T03:14:31.657Z,1.60
2019-02-12T03:17:02.405Z,1.60
2019-02-12T03:19:36.488Z,1.60
2019-02-12T03:22:08.155Z,1.60
2019-02-12T03:24:38.948Z,1.60
2019-02-12T03:27:09.723Z,1.50
2019-02-12T03:29:40.485Z,1.50
2019-02-12T03:32:11.229Z,1.50
2019-02-12T03:34:42.107Z,1.50
2019-02-12T03:37:12.824Z,1.50
2019-02-12T03:39:43.713Z,1.50
2019-02-12T03:42:14.646Z,1.50
2019-02-12T03:44:45.528Z,1.50
2019-02-12T03:47:16.357Z,1.50
2019-02-12T03:49:47.324Z,1.50
2019-02-12T03:52:18.055Z,1.50
2019-02-12T03:54:49.397Z,1.50
2019-02-12T03:57:20.209Z,1.50
2019-02-12T03:59:51.015Z,1.50
2019-02-12T04:02:21.721Z,1.50
2019-02-12T04:04:52.507Z,1.50
2019-02-12T04:07:23.300Z,1.50
2019-02-12T04:09:54.213Z,1.50
2019-02-12T04:12:25.229Z,1.50
2019-02-12T04:14:56.046Z,1.50
2019-02-12T04:17:26.947Z,1.60
2019-02-12T04:19:57.784Z,1.60
2019-02-12T04:22:28.595Z,1.60
2019-02-12T04:24:59.461Z,1.70
2019-02-12T04:27:30.236Z,1.60
2019-02-12T04:30:01.101Z,1.60
2019-02-12T04:32:31.893Z,1.60
2019-02-12T04:35:02.771Z,1.60
2019-02-12T04:37:33.713Z,1.60
2019-02-12T04:40:04.930Z,1.60
2019-02-12T04:42:35.789Z,1.60
2019-02-12T04:45:07.478Z,1.60
2019-02-12T04:47:38.266Z,1.60
2019-02-12T04:50:10.207Z,1.60
2019-02-12T04:53:01.477Z,1.60
2019-02-12T04:55:32.378Z,1.50
2019-02-12T04:58:03.209Z,1.50
2019-02-12T05:00:34.061Z,1.50
2019-02-12T05:03:04.968Z,1.50
2019-02-12T05:05:35.874Z,1.50
2019-02-12T05:08:06.619Z,1.50
2019-02-12T05:10:40.382Z,1.50
2019-02-12T05:13:11.140Z,1.50
2019-02-12T05:15:41.896Z,1.50
2019-02-12T05:18:12.647Z,1.50
2019-02-12T05:20:43.502Z,1.40
2019-02-12T05:23:14.291Z,1.40
2019-02-12T05:25:45.124Z,1.40
2019-02-12T05:28:15.827Z,1.40
2019-02-12T05:30:46.666Z,1.40
2019-02-12T05:33:17.430Z,1.30
2019-02-12T05:35:48.231Z,1.30
2019-02-12T05:38:19.041Z,1.30
2019-02-12T05:40:49.815Z,1.30
2019-02-12T05:43:20.516Z,1.30
2019-02-12T05:45:51.391Z,1.30
2019-02-12T05:48:22.197Z,1.20
2019-02-12T05:50:53.019Z,1.20
2019-02-12T05:53:23.768Z,1.20
2019-02-12T05:55:54.803Z,1.20
2019-02-12T05:58:28.869Z,1.20
2019-02-12T06:00:59.827Z,1.20
2019-02-12T06:03:31.686Z,1.20
2019-02-12T06:06:02.587Z,1.10
2019-02-12T06:08:33.426Z,1.10
2019-02-12T06:11:04.517Z,1.10
2019-02-12T06:13:35.358Z,1.10
2019-02-12T06:16:06.241Z,1.00
2019-02-12T06:18:37.030Z,1.10
2019-02-12T06:21:07.924Z,1.00
2019-02-12T06:23:38.813Z,1.00
2019-02-12T06:26:09.625Z,1.00
2019-02-12T06:28:40.355Z,1.00
2019-02-12T06:31:11.194Z,1.00
2019-02-12T06:33:42.019Z,1.00
2019-02-12T06:36:13.988Z,1.00
2019-02-12T06:38:44.808Z,1.10
2019-02-12T06:41:15.757Z,1.10
2019-02-12T06:43:46.526Z,1.10
2019-02-12T06:46:17.372Z,1.20
2019-02-12T06:48:48.149Z,1.20
2019-02-12T06:51:19.135Z,1.20
2019-02-12T06:53:49.888Z,1.30
2019-02-12T06:56:20.722Z,1.40
2019-02-12T06:58:51.560Z,1.40
2019-02-12T07:01:22.618Z,1.40
2019-02-12T07:04:01.765Z,1.40
2019-02-12T07:07:22.374Z,1.50
2019-02-12T07:09:59.827Z,1.50
2019-02-12T07:13:26.586Z,1.50
2019-02-12T07:16:19.770Z,1.60
2019-02-12T07:19:34.686Z,1.60
2019-02-12T07:22:50.780Z,1.60
2019-02-12T07:26:01.538Z,1.70
2019-02-12T07:29:26.207Z,1.80
2019-02-12T07:32:32.182Z,1.80
2019-02-12T07:35:40.044Z,1.90
2019-02-12T07:38:56.669Z,2.00
2019-02-12T07:41:45.366Z,2.10
2019-02-12T07:44:50.959Z,2.30
2019-02-12T07:48:08.676Z,2.40
2019-02-12T07:51:17.783Z,2.40
2019-02-12T07:54:42.432Z,2.40
2019-02-12T07:58:05.044Z,2.50
2019-02-12T08:01:21.884Z,2.50
2019-02-12T08:04:27.838Z,2.40
2019-02-12T08:07:44.039Z,2.40
2019-02-12T08:10:55.616Z,2.40
2019-02-12T08:14:28.623Z,2.30
2019-02-12T08:17:10.307Z,2.30
2019-02-12T08:20:09.896Z,2.30
2019-02-12T08:23:12.997Z,2.30
2019-02-12T08:26:13.876Z,2.40
2019-02-12T08:29:25.439Z,2.40
2019-02-12T08:32:27.313Z,2.30
2019-02-12T08:35:25.400Z,2.30
2019-02-12T08:38:19.734Z,2.40
2019-02-12T08:41:25.471Z,2.40
2019-02-12T08:44:39.000Z,2.40
2019-02-12T08:47:52.842Z,2.50
2019-02-12T08:51:03.200Z,2.50
2019-02-12T08:54:24.166Z,2.50
2019-02-12T08:57:25.501Z,2.50
2019-02-12T09:00:28.558Z,2.50
2019-02-12T09:03:39.595Z,2.50
2019-02-12T09:06:41.146Z,2.60
2019-02-12T09:10:02.156Z,2.70
2019-02-12T09:12:58.771Z,2.70
2019-02-12T09:16:05.504Z,2.70
2019-02-12T09:19:05.893Z,2.70
2019-02-12T09:22:14.874Z,2.80
2019-02-12T09:25:06.568Z,2.80
2019-02-12T09:28:19.115Z,2.80
2019-02-12T09:31:23.726Z,2.90
2019-02-12T09:34:29.105Z,3.00
2019-02-12T09:37:29.859Z,3.00
2019-02-12T09:40:23.503Z,3.20
2019-02-12T09:43:11.927Z,3.30
2019-02-12T09:46:12.905Z,3.20
2019-02-12T09:49:05.260Z,3.20
2019-02-12T09:52:10.364Z,3.20
2019-02-12T09:55:12.672Z,3.30
2019-02-12T09:57:59.865Z,3.30
2019-02-12T10:00:41.810Z,3.30
2019-02-12T10:03:47.538Z,3.20
2019-02-12T10:07:23.464Z,3.20
2019-02-12T10:10:32.547Z,3.10
2019-02-12T10:13:32.937Z,3.10
2019-02-12T10:16:40.182Z,3.10
2019-02-12T10:19:52.078Z,3.10
2019-02-12T10:23:06.162Z,3.00
2019-02-12T10:25:39.772Z,3.10
2019-02-12T10:28:50.413Z,3.20
2019-02-12T10:31:46.152Z,3.20
2019-02-12T10:34:17.054Z,3.30
2019-02-12T10:36:47.972Z,3.30
2019-02-12T10:39:18.953Z,3.30
2019-02-12T10:41:49.871Z,3.30
2019-02-12T10:44:20.858Z,3.30
2019-02-12T10:46:54.181Z,3.20
2019-02-12T10:49:24.917Z,3.30
2019-02-12T10:51:55.821Z,3.30
2019-02-12T10:54:28.192Z,3.30
2019-02-12T10:56:59.460Z,3.40
2019-02-12T10:59:30.489Z,3.50
2019-02-12T11:02:01.636Z,3.70
2019-02-12T11:04:32.640Z,3.70
2019-02-12T11:07:03.541Z,3.70
2019-02-12T11:09:35.473Z,3.60
2019-02-12T11:12:06.333Z,3.70
2019-02-12T11:14:37.111Z,3.70
2019-02-12T11:17:08.065Z,3.70
2019-02-12T11:19:39.098Z,3.70
2019-02-12T11:22:10.157Z,3.70
2019-02-12T11:24:41.195Z,3.80
2019-02-12T11:27:12.250Z,3.80
2019-02-12T11:29:43.101Z,3.80
2019-02-12T11:32:15.068Z,3.90
2019-02-12T11:34:45.855Z,4.00
2019-02-12T11:37:16.770Z,3.90
2019-02-12T11:39:47.712Z,3.90
2019-02-12T11:42:18.687Z,3.90
2019-02-12T11:44:49.748Z,3.90
2019-02-12T11:47:20.940Z,4.00
2019-02-12T11:49:51.910Z,4.10
2019-02-12T11:52:22.701Z,4.30
2019-02-12T11:54:53.634Z,4.60
2019-02-12T11:57:24.652Z,4.90
2019-02-12T12:00:11.022Z,4.90
2019-02-12T12:02:44.869Z,5.00
2019-02-12T12:05:15.618Z,5.20
2019-02-12T12:07:46.729Z,5.50
2019-02-12T12:10:18.155Z,5.60
2019-02-12T12:12:49.113Z,6.10
2019-02-12T12:15:21.114Z,7.00
2019-02-12T12:17:52.091Z,7.90
2019-02-12T12:20:23.103Z,8.80
2019-02-12T12:22:53.978Z,9.40
2019-02-12T12:25:25.021Z,9.80
2019-02-12T12:27:56.207Z,10.30
2019-02-12T12:30:27.105Z,10.30
2019-02-12T12:32:58.190Z,10.40
2019-02-12T12:35:29.134Z,10.50
2019-02-12T12:38:00.041Z,10.50
2019-02-12T12:40:30.885Z,10.60
2019-02-12T12:43:01.757Z,10.80
2019-02-12T12:45:32.878Z,11.10
2019-02-12T12:48:03.848Z,11.30
2019-02-12T12:50:34.594Z,11.50
2019-02-12T12:53:08.490Z,11.60
2019-02-12T12:55:39.411Z,11.70
2019-02-12T12:58:10.456Z,11.70
2019-02-12T13:00:41.369Z,11.70
2019-02-12T13:03:13.504Z,11.70
2019-02-12T13:05:44.563Z,11.80
2019-02-12T13:08:18.463Z,11.90
2019-02-12T13:10:49.369Z,12.00
2019-02-12T13:13:20.370Z,12.10
2019-02-12T13:15:51.297Z,12.30
2019-02-12T13:18:22.230Z,12.40
2019-02-12T13:20:54.484Z,12.40
2019-02-12T13:23:26.354Z,12.20
2019-02-12T13:25:57.829Z,12.20
2019-02-12T13:28:29.690Z,12.20
2019-02-12T13:31:01.573Z,12.10
2019-02-12T13:33:33.192Z,11.60
2019-02-12T13:36:04.735Z,10.60
2019-02-12T13:38:38.051Z,10.10
2019-02-12T13:41:09.803Z,10.20
2019-02-12T13:43:41.111Z,10.30
2019-02-12T13:46:12.417Z,10.40
2019-02-12T13:48:43.893Z,10.40
2019-02-12T13:51:15.325Z,10.40
2019-02-12T13:53:47.185Z,10.40
2019-02-12T13:56:18.563Z,10.40
2019-02-12T13:58:50.509Z,10.10
2019-02-12T14:01:21.818Z,9.90
2019-02-12T14:03:53.107Z,10.00
2019-02-12T14:06:24.456Z,9.90
2019-02-12T14:08:56.382Z,9.80
2019-02-12T14:11:27.971Z,9.90
2019-02-12T14:13:59.610Z,10.20
2019-02-12T14:16:31.198Z,10.40
2019-02-12T14:19:02.461Z,10.40
2019-02-12T14:21:33.565Z,10.40
2019-02-12T14:24:04.963Z,10.40
2019-02-12T14:26:36.533Z,10.50
2019-02-12T14:29:08.542Z,10.90
2019-02-12T14:31:40.853Z,11.10
2019-02-12T14:34:12.634Z,11.30
2019-02-12T14:36:44.087Z,11.30
2019-02-12T14:39:16.140Z,11.10
2019-02-12T14:41:47.428Z,11.00
2019-02-12T14:44:19.010Z,10.80
2019-02-12T14:46:50.411Z,10.70
2019-02-12T14:49:21.650Z,10.40
2019-02-12T14:51:54.132Z,10.20
2019-02-12T14:54:26.195Z,10.00
2019-02-12T14:56:57.833Z,10.00
2019-02-12T14:59:29.669Z,9.80
2019-02-12T15:02:01.163Z,9.70
2019-02-12T15:04:32.943Z,9.60
2019-02-12T15:07:04.477Z,9.50
2019-02-12T15:09:36.178Z,9.10
2019-02-12T15:12:07.580Z,8.70
2019-02-12T15:14:39.139Z,8.20
2019-02-12T15:17:11.423Z,7.80
2019-02-12T15:20:36.355Z,7.20
2019-02-12T15:23:11.087Z,6.60
2019-02-12T15:25:42.834Z,6.00
2019-02-12T15:28:14.319Z,5.60
2019-02-12T15:30:45.985Z,5.20
2019-02-12T15:33:17.291Z,4.60
2019-02-12T15:40:01.616Z,3.70
2019-02-12T15:42:33.831Z,3.20
2019-02-12T15:45:05.620Z,2.90
2019-02-12T15:47:37.500Z,2.80
2019-02-12T15:50:10.034Z,2.60
2019-02-12T15:52:41.183Z,2.50
2019-02-12T15:55:14.078Z,2.50
2019-02-12T15:57:45.886Z,2.30
2019-02-12T16:00:20.307Z,2.30
2019-02-12T16:02:50.726Z,2.20
2019-02-12T16:05:21.688Z,2.10
2019-02-12T16:07:52.670Z,2.00
2019-02-12T16:10:23.548Z,2.00
2019-02-12T16:12:54.662Z,1.90
2019-02-12T16:15:25.712Z,1.90
2019-02-12T16:20:39.355Z,1.80
2019-02-12T16:23:30.423Z,1.80
2019-02-12T16:26:12.914Z,1.80
2019-02-12T16:28:44.092Z,1.80
2019-02-12T16:31:15.957Z,1.70
2019-02-12T16:33:47.230Z,1.70
2019-02-12T16:36:18.530Z,1.70
2019-02-12T16:38:50.102Z,1.70
2019-02-12T16:41:21.381Z,1.60
2019-02-12T16:43:52.623Z,1.60
2019-02-12T16:46:24.190Z,1.60
2019-02-12T16:48:56.419Z,1.50
2019-02-12T16:51:29.709Z,1.50
2019-02-12T16:54:01.315Z,1.50
2019-02-12T16:56:33.036Z,1.50
2019-02-12T16:59:04.741Z,1.40
2019-02-12T17:01:36.973Z,1.40
2019-02-12T17:04:08.882Z,1.40
2019-02-12T17:06:40.075Z,1.40
2019-02-12T17:09:11.486Z,1.40
2019-02-12T17:11:42.601Z,1.40
2019-02-12T17:14:14.012Z,1.40
2019-02-12T17:16:44.992Z,1.40
2019-02-12T17:19:16.656Z,1.30
2019-02-12T17:21:49.210Z,1.30
2019-02-12T17:24:20.693Z,1.30
2019-02-12T17:26:52.052Z,1.30
2019-02-12T17:29:23.113Z,1.30
2019-02-12T17:31:54.969Z,1.30
2019-02-12T17:34:26.770Z,1.20
2019-02-12T17:36:58.634Z,1.20
2019-02-12T17:39:30.315Z,1.20
2019-02-12T17:42:02.158Z,1.20
2019-02-12T17:44:33.972Z,1.20
2019-02-12T17:47:05.373Z,1.10
2019-02-12T17:49:37.156Z,1.20
2019-02-12T17:52:08.449Z,1.10
2019-02-12T17:54:40.020Z,1.10
2019-02-12T17:57:11.043Z,1.10
2019-02-12T17:59:41.965Z,1.10
2019-02-12T18:02:15.006Z,1.10
2019-02-12T18:04:46.296Z,1.10
2019-02-12T18:07:17.998Z,1.10
2019-02-12T18:09:49.308Z,1.10
2019-02-12T18:12:20.899Z,1.10
2019-02-12T18:14:52.645Z,1.10
2019-02-12T18:17:24.418Z,1.10
2019-02-12T18:19:55.708Z,1.10
2019-02-12T18:22:27.255Z,1.10
2019-02-12T18:24:58.488Z,1.10
2019-02-12T18:27:30.515Z,1.10
2019-02-12T18:30:01.669Z,1.10
2019-02-12T18:32:32.779Z,1.10
2019-02-12T18:35:04.352Z,1.10
2019-02-12T18:37:41.144Z,1.00
2019-02-12T18:40:25.460Z,1.00
2019-02-12T18:42:56.795Z,1.00
2019-02-12T18:45:28.559Z,1.00
2019-02-12T18:47:59.796Z,1.00
2019-02-12T18:50:31.002Z,1.00
2019-02-12T18:53:02.042Z,1.00
2019-02-12T18:55:33.690Z,1.00
2019-02-12T18:58:05.109Z,1.00
2019-02-12T19:00:36.596Z,1.10
2019-02-12T19:03:07.946Z,1.10
2019-02-12T19:05:39.183Z,1.10
2019-02-12T19:08:10.277Z,1.10
2019-02-12T19:10:41.627Z,1.20
2019-02-12T19:13:12.885Z,1.20
2019-02-12T19:15:44.096Z,1.20
2019-02-12T19:18:17.964Z,1.20
2019-02-12T19:20:49.150Z,1.20
2019-02-12T19:23:20.326Z,1.20
2019-02-12T19:25:51.607Z,1.30
2019-02-12T19:28:22.919Z,1.30
2019-02-12T19:30:54.366Z,1.30
2019-02-12T19:33:25.561Z,1.30
2019-02-12T19:35:56.716Z,1.30
2019-02-12T19:38:27.815Z,1.30
2019-02-12T19:40:58.985Z,1.30
2019-02-12T19:43:30.280Z,1.30
2019-02-12T19:46:02.941Z,1.20
2019-02-12T19:48:34.053Z,1.20
2019-02-12T19:51:05.647Z,1.20
2019-02-12T19:53:36.945Z,1.10
2019-02-12T19:56:08.368Z,1.20
2019-02-12T19:58:39.353Z,1.10
2019-02-12T20:01:10.859Z,1.20
2019-02-12T20:03:42.590Z,1.10
2019-02-12T20:06:14.682Z,1.10
2019-02-12T20:08:50.144Z,1.20
2019-02-12T20:11:25.292Z,1.20
2019-02-12T20:13:58.403Z,1.20
2019-02-12T20:16:40.225Z,1.20
2019-02-12T20:19:13.922Z,1.20
2019-02-12T20:21:49.253Z,1.10
2019-02-12T20:24:21.031Z,1.20
2019-02-12T20:26:52.137Z,1.10
2019-02-12T20:29:23.639Z,1.10
2019-02-12T20:31:55.454Z,1.10
2019-02-12T20:34:27.144Z,1.10
2019-02-12T20:36:59.029Z,1.10
2019-02-12T20:39:30.157Z,1.10
2019-02-12T20:42:01.906Z,1.10
2019-02-12T20:44:33.708Z,1.10
2019-02-12T20:47:04.967Z,1.10
2019-02-12T20:49:36.607Z,1.00
2019-02-12T20:52:08.366Z,1.00
2019-02-12T20:54:39.510Z,1.00
2019-02-12T20:57:15.116Z,1.00
2019-02-12T20:59:44.015Z,1.00
2019-02-12T21:02:15.915Z,1.00
2019-02-12T21:04:46.951Z,0.90
2019-02-12T21:07:18.121Z,0.90
2019-02-12T21:09:49.268Z,0.90
2019-02-12T21:12:20.453Z,0.90
2019-02-12T21:14:51.625Z,0.90
2019-02-12T21:17:25.874Z,0.90
2019-02-12T21:19:56.825Z,0.90
2019-02-12T21:22:27.870Z,0.90
2019-02-12T21:24:59.040Z,0.90
2019-02-12T21:27:30.169Z,0.80
2019-02-12T21:30:01.184Z,0.90
2019-02-12T21:32:32.581Z,0.80
2019-02-12T21:35:04.534Z,0.80
2019-02-12T21:37:35.750Z,0.80
2019-02-12T21:40:08.725Z,0.80
2019-02-12T21:42:40.440Z,0.80
2019-02-12T21:45:13.359Z,0.80
2019-02-12T21:47:44.420Z,0.80
2019-02-12T21:50:18.904Z,0.80
2019-02-12T21:52:50.326Z,0.80
2019-02-12T21:55:21.714Z,0.70
2019-02-12T21:57:53.479Z,0.80
2019-02-12T22:00:24.694Z,0.80
2019-02-12T22:02:55.788Z,0.70
2019-02-12T22:05:26.781Z,0.70
2019-02-12T22:07:57.793Z,0.70
2019-02-12T22:10:28.980Z,0.70
2019-02-12T22:13:00.403Z,0.70
2019-02-12T22:15:31.531Z,0.70
2019-02-12T22:18:02.817Z,0.70
2019-02-12T22:20:33.746Z,0.70
2019-02-12T22:23:04.908Z,0.70
2019-02-12T22:25:35.908Z,0.70
2019-02-12T22:28:06.963Z,0.70
2019-02-12T22:30:37.906Z,0.70
2019-02-12T22:33:08.994Z,0.70
2019-02-12T22:35:40.067Z,0.70
2019-02-12T22:38:12.248Z,0.70
2019-02-12T22:40:43.323Z,0.70
2019-02-12T22:43:14.388Z,0.70
2019-02-12T22:45:45.325Z,0.80
2019-02-12T22:48:16.326Z,0.80
2019-02-12T22:50:48.789Z,0.80
2019-02-12T22:53:21.254Z,0.90
2019-02-12T22:55:52.455Z,0.90
2019-02-12T22:58:23.808Z,0.90
2019-02-12T23:01:04.260Z,1.00
2019-02-12T23:03:36.786Z,1.00
2019-02-12T23:06:09.084Z,1.00
2019-02-12T23:08:40.306Z,1.00
2019-02-12T23:11:11.286Z,1.00
2019-02-12T23:13:42.435Z,1.00
2019-02-12T23:16:13.579Z,1.00
2019-02-12T23:18:44.665Z,1.00
2019-02-12T23:21:16.523Z,1.00
2019-02-12T23:23:48.077Z,1.00
2019-02-12T23:26:19.627Z,1.00
2019-02-12T23:28:50.684Z,1.10
2019-02-12T23:31:21.828Z,1.10
2019-02-12T23:33:54.384Z,1.10
2019-02-12T23:36:26.023Z,1.10
2019-02-12T23:38:57.660Z,1.20
2019-02-12T23:41:29.391Z,1.20
2019-02-12T23:44:00.504Z,1.20
2019-02-12T23:46:31.677Z,1.20
2019-02-12T23:49:02.736Z,1.30
2019-02-12T23:51:33.931Z,1.30
2019-02-12T23:54:05.156Z,1.30
2019-02-12T23:56:36.347Z,1.40
2019-02-12T23:59:07.550Z,1.30
